createdAt,value
2023-01-04T00:02:35.971Z,14.57
2023-01-04T00:05:22.319Z,13.95
2023-01-04T00:08:08.132Z,18.20
2023-01-04T00:10:54.347Z,14.57
2023-01-04T00:13:40.955Z,17.60
2023-01-04T00:16:28.777Z,15.50
2023-01-04T00:19:14.834Z,13.43
2023-01-04T00:22:00.947Z,11.55
2023-01-04T00:24:46.869Z,9.80
2023-01-04T00:27:32.857Z,10.32
2023-01-04T00:30:18.884Z,11.75
2023-01-04T00:33:05.397Z,7.82
2023-01-04T00:35:51.371Z,12.93
2023-01-04T00:38:37.776Z,8.10
2023-01-04T00:41:56.990Z,14.35
2023-01-04T00:44:31.074Z,10.45
2023-01-04T00:47:17.140Z,11.70
2023-01-04T00:50:04.165Z,6.35
2023-01-04T00:52:50.377Z,10.02
2023-01-04T00:55:36.495Z,12.15
2023-01-04T00:58:22.204Z,13.25
2023-01-04T01:01:10.089Z,6.47
2023-01-04T01:03:58.148Z,15.30
2023-01-04T01:06:44.798Z,14.27
2023-01-04T01:09:30.714Z,7.70
2023-01-04T01:12:16.547Z,14.43
2023-01-04T01:15:02.687Z,10.77
2023-01-04T01:17:48.921Z,12.35
2023-01-04T01:20:34.810Z,6.95
2023-01-04T01:23:20.951Z,11.27
2023-01-04T01:26:08.985Z,12.48
2023-01-04T01:28:57.462Z,9.60
2023-01-04T01:31:43.402Z,15.52
2023-01-04T01:34:29.695Z,13.25
2023-01-04T01:37:16.125Z,9.35
2023-01-04T01:40:01.940Z,13.90
2023-01-04T01:42:47.981Z,13.60
2023-01-04T01:45:34.890Z,16.92
2023-01-04T01:48:28.916Z,9.35
2023-01-04T01:51:17.716Z,17.33
2023-01-04T01:54:27.769Z,16.13
2023-01-04T01:57:19.926Z,11.48
2023-01-04T02:00:11.095Z,15.15
2023-01-04T02:03:18.636Z,12.98
2023-01-04T02:06:08.566Z,20.00
2023-01-04T02:08:54.738Z,15.02
2023-01-04T02:11:40.968Z,12.77
2023-01-04T02:14:27.239Z,14.68
2023-01-04T02:17:39.336Z,16.60
2023-01-04T02:20:37.791Z,17.73
2023-01-04T02:24:04.014Z,11.88
2023-01-04T02:27:08.800Z,9.40
2023-01-04T02:30:19.678Z,15.18
2023-01-04T02:33:37.722Z,12.82
2023-01-04T02:36:40.662Z,14.10
2023-01-04T02:39:47.735Z,17.85
2023-01-04T02:43:08.413Z,13.88
2023-01-04T02:46:08.342Z,16.67
2023-01-04T02:49:17.226Z,15.02
2023-01-04T02:52:03.617Z,22.30
2023-01-04T02:54:53.369Z,12.80
2023-01-04T02:57:51.647Z,17.40
2023-01-04T03:01:28.107Z,16.25
2023-01-04T03:04:53.012Z,21.70
2023-01-04T03:07:50.196Z,12.73
2023-01-04T03:10:47.056Z,18.27
2023-01-04T03:13:40.890Z,15.20
2023-01-04T03:16:28.511Z,17.55
2023-01-04T03:19:37.440Z,18.88
2023-01-04T03:23:25.269Z,17.08
2023-01-04T03:26:35.689Z,11.50
2023-01-04T03:30:06.329Z,15.98
2023-01-04T03:33:17.032Z,14.85
2023-01-04T03:36:31.809Z,8.07
2023-01-04T03:40:17.734Z,13.13
2023-01-04T03:43:28.651Z,12.75
2023-01-04T03:46:51.231Z,12.50
2023-01-04T03:49:57.539Z,5.95
2023-01-04T03:52:47.436Z,11.45
2023-01-04T03:55:37.070Z,6.75
2023-01-04T03:58:23.309Z,10.52
2023-01-04T04:01:09.838Z,9.30
2023-01-04T04:04:14.601Z,9.27
2023-01-04T04:07:19.219Z,13.07
2023-01-04T04:10:06.248Z,5.63
2023-01-04T04:12:52.555Z,8.35
2023-01-04T04:15:39.927Z,8.00
2023-01-04T04:18:26.037Z,5.68
2023-01-04T04:21:12.004Z,5.72
2023-01-04T04:23:58.215Z,6.40
2023-01-04T04:26:44.874Z,7.20
2023-01-04T04:29:31.361Z,12.05
2023-01-04T04:32:17.515Z,5.18
2023-01-04T04:35:04.348Z,6.00
2023-01-04T04:37:50.229Z,6.13
2023-01-04T04:40:57.196Z,9.70
2023-01-04T04:43:43.027Z,6.22
2023-01-04T04:46:29.021Z,7.22
2023-01-04T04:49:16.301Z,10.25
2023-01-04T04:52:02.125Z,8.15
2023-01-04T04:54:47.959Z,10.02
2023-01-04T04:57:34.117Z,13.65
2023-01-04T05:00:19.973Z,5.93
2023-01-04T05:03:08.977Z,8.43
2023-01-04T05:05:55.536Z,7.60
2023-01-04T05:08:41.452Z,9.15
2023-01-04T05:11:45.901Z,7.97
2023-01-04T05:14:31.868Z,8.73
2023-01-04T05:17:17.848Z,7.40
2023-01-04T05:20:04.316Z,9.32
2023-01-04T05:22:50.365Z,10.77
2023-01-04T05:25:36.678Z,13.43
2023-01-04T05:28:22.706Z,11.35
2023-01-04T05:40:54.080Z,15.48
2023-01-04T05:43:40.265Z,18.27
2023-01-04T05:46:26.140Z,18.08
2023-01-04T05:49:12.548Z,11.07
2023-01-04T05:51:58.679Z,15.43
2023-01-04T05:54:45.076Z,17.10
2023-01-04T05:57:30.949Z,15.35
2023-01-04T06:00:17.367Z,10.90
2023-01-04T06:03:03.645Z,8.30
2023-01-04T06:05:53.097Z,16.35
2023-01-04T06:08:39.438Z,8.85
2023-01-04T06:11:27.863Z,8.88
2023-01-04T06:14:14.132Z,6.25
2023-01-04T06:17:00.473Z,10.00
2023-01-04T06:19:46.525Z,11.65
2023-01-04T06:22:33.480Z,10.02
2023-01-04T06:25:20.222Z,13.15
2023-01-04T06:28:06.935Z,9.52
2023-01-04T06:30:53.425Z,17.45
2023-01-04T06:33:40.394Z,19.67
2023-01-04T06:36:26.496Z,12.73
2023-01-04T06:39:12.584Z,9.20
2023-01-04T06:42:06.543Z,7.20
2023-01-04T06:44:53.586Z,7.22
2023-01-04T06:47:41.330Z,7.40
2023-01-04T06:50:28.132Z,6.18
2023-01-04T06:53:14.285Z,7.60
2023-01-04T06:56:00.336Z,13.60
2023-01-04T06:58:46.731Z,9.77
2023-01-04T07:01:33.535Z,7.10
2023-01-04T07:04:19.646Z,10.57
2023-01-04T07:07:05.403Z,6.20
2023-01-04T07:09:52.096Z,9.75
2023-01-04T07:12:39.272Z,10.82
2023-01-04T07:15:39.372Z,8.85
2023-01-04T07:18:26.712Z,15.10
2023-01-04T07:21:12.970Z,6.05
2023-01-04T07:23:59.272Z,7.75
2023-01-04T07:26:45.304Z,5.38
2023-01-04T07:29:31.041Z,8.85
2023-01-04T07:32:16.981Z,13.13
2023-01-04T07:35:03.171Z,8.90
2023-01-04T07:37:55.668Z,10.13
2023-01-04T07:40:55.835Z,11.05
2023-01-04T07:43:43.116Z,7.57
2023-01-04T07:46:29.094Z,9.57
2023-01-04T07:49:18.557Z,13.98
2023-01-04T07:52:10.833Z,7.80
2023-01-04T07:54:56.932Z,7.22
2023-01-04T07:57:43.028Z,7.32
2023-01-04T08:00:28.942Z,7.07
2023-01-04T08:03:14.787Z,6.90
2023-01-04T08:06:08.707Z,7.25
2023-01-04T08:08:55.319Z,6.45
2023-01-04T08:11:41.517Z,4.60
2023-01-04T08:14:27.919Z,9.15
2023-01-04T08:17:14.095Z,6.35
2023-01-04T08:20:01.607Z,7.88
2023-01-04T08:22:47.638Z,7.97
2023-01-04T08:25:33.595Z,10.13
2023-01-04T08:28:19.785Z,8.82
2023-01-04T08:31:15.057Z,9.95
2023-01-04T08:34:03.701Z,10.38
2023-01-04T08:36:53.285Z,11.07
2023-01-04T08:39:44.019Z,6.10
2023-01-04T08:42:33.020Z,6.43
2023-01-04T08:45:18.853Z,9.15
2023-01-04T08:48:05.181Z,7.55
2023-01-04T08:50:51.135Z,7.43
2023-01-04T08:53:36.955Z,5.45
2023-01-04T08:56:22.957Z,8.52
2023-01-04T08:59:11.996Z,10.15
2023-01-04T09:02:04.934Z,5.47
2023-01-04T09:04:52.364Z,6.40
2023-01-04T09:07:38.593Z,9.10
2023-01-04T09:10:25.650Z,10.88
2023-01-04T09:13:11.870Z,7.20
2023-01-04T09:16:01.838Z,8.00
2023-01-04T09:18:48.187Z,9.32
2023-01-04T09:21:35.436Z,13.10
2023-01-04T09:24:21.933Z,9.68
2023-01-04T09:27:08.628Z,10.98
2023-01-04T09:29:55.615Z,9.82
2023-01-04T09:32:41.822Z,8.73
2023-01-04T09:35:27.762Z,8.65
2023-01-04T09:38:13.904Z,7.53
2023-01-04T09:41:24.118Z,11.20
2023-01-04T09:44:10.122Z,8.38
2023-01-04T09:47:05.545Z,11.32
2023-01-04T09:50:04.353Z,9.35
2023-01-04T09:53:02.791Z,9.55
2023-01-04T09:55:53.015Z,16.08
2023-01-04T09:58:41.919Z,9.00
2023-01-04T10:01:50.951Z,16.15
2023-01-04T10:04:48.994Z,14.73
2023-01-04T10:07:35.982Z,11.05
2023-01-04T10:10:32.128Z,16.70
2023-01-04T10:13:48.829Z,14.23
2023-01-04T10:23:44.719Z,15.15
2023-01-04T10:26:42.091Z,12.50
2023-01-04T10:29:39.968Z,11.23
2023-01-04T10:32:43.418Z,12.82
2023-01-04T10:35:32.076Z,12.73
2023-01-04T10:38:24.199Z,18.10
2023-01-04T10:41:21.382Z,21.05
2023-01-04T10:44:45.116Z,14.32
2023-01-04T10:47:32.051Z,13.07
2023-01-04T10:50:39.382Z,11.73
2023-01-04T10:53:44.632Z,13.27
2023-01-04T10:56:49.676Z,13.90
2023-01-04T10:59:50.635Z,15.00
2023-01-04T11:03:06.554Z,13.07
2023-01-04T11:06:05.628Z,13.10
2023-01-04T11:09:13.394Z,14.63
2023-01-04T11:12:02.217Z,15.68
2023-01-04T11:14:49.729Z,11.23
2023-01-04T11:17:36.576Z,15.25
2023-01-04T11:20:26.703Z,17.60
2023-01-04T11:23:19.496Z,16.50
2023-01-04T11:26:14.730Z,9.68
2023-01-04T11:29:17.497Z,16.90
2023-01-04T11:32:11.159Z,12.60
2023-01-04T11:35:00.602Z,13.57
2023-01-04T11:37:46.606Z,17.33
2023-01-04T11:40:33.303Z,15.13
2023-01-04T11:43:21.716Z,13.88
2023-01-04T11:46:24.500Z,13.32
2023-01-04T11:49:20.185Z,14.98
2023-01-04T11:52:08.566Z,18.13
2023-01-04T11:54:54.740Z,16.45
2023-01-04T11:57:40.723Z,13.68
2023-01-04T12:00:26.859Z,16.35
2023-01-04T12:03:20.156Z,12.80
2023-01-04T12:06:37.310Z,15.15
2023-01-04T12:09:23.513Z,12.25
2023-01-04T12:12:16.108Z,11.43
2023-01-04T12:15:17.265Z,11.73
2023-01-04T12:18:21.098Z,15.55
2023-01-04T12:21:12.643Z,8.93
2023-01-04T12:23:58.836Z,16.73
2023-01-04T12:26:45.217Z,15.52
2023-01-04T12:29:43.184Z,16.23
2023-01-04T12:32:29.238Z,16.33
2023-01-04T12:35:59.216Z,12.65
2023-01-04T12:39:03.962Z,10.32
2023-01-04T12:42:03.702Z,11.45
2023-01-04T12:44:52.369Z,14.82
2023-01-04T12:47:58.248Z,12.13
2023-01-04T12:51:31.052Z,8.27
2023-01-04T12:54:32.337Z,15.23
2023-01-04T12:57:18.926Z,14.45
2023-01-04T13:00:12.565Z,15.27
2023-01-04T13:03:20.680Z,17.30
2023-01-04T13:06:07.742Z,11.27
2023-01-04T13:08:54.041Z,14.27
2023-01-04T13:12:08.159Z,16.98
2023-01-04T13:15:02.921Z,18.20
2023-01-04T13:17:50.840Z,14.82
2023-01-04T13:20:38.515Z,14.50
2023-01-04T13:23:27.916Z,20.48
2023-01-04T13:26:33.324Z,19.05
2023-01-04T13:29:25.224Z,18.45
2023-01-04T13:32:16.317Z,20.23
2023-01-04T13:35:14.208Z,16.27
2023-01-04T13:38:01.346Z,19.13
2023-01-04T13:40:49.516Z,20.60
2023-01-04T13:43:54.367Z,20.65
2023-01-04T13:46:43.120Z,19.58
2023-01-04T13:49:29.424Z,21.98
2023-01-04T13:52:50.469Z,17.52
2023-01-04T13:55:35.367Z,23.40
2023-01-04T13:58:23.995Z,22.88
2023-01-04T14:01:25.048Z,23.25
2023-01-04T14:04:24.423Z,21.13
2023-01-04T14:07:10.810Z,20.45
2023-01-04T14:10:00.364Z,20.13
2023-01-04T14:12:47.379Z,17.77
2023-01-04T14:15:37.860Z,19.55
2023-01-04T14:18:29.879Z,13.57
2023-01-04T14:21:17.614Z,16.17
2023-01-04T14:24:04.480Z,19.52
2023-01-04T14:26:50.528Z,22.60
2023-01-04T14:29:40.481Z,15.82
2023-01-04T14:32:27.933Z,20.50
2023-01-04T14:35:15.140Z,16.38
2023-01-04T14:38:11.083Z,24.25
2023-01-04T14:41:00.575Z,18.20
2023-01-04T14:44:00.612Z,22.33
2023-01-04T14:46:56.360Z,18.95
2023-01-04T14:49:42.539Z,17.40
2023-01-04T14:52:30.127Z,15.43
2023-01-04T14:55:16.190Z,20.25
2023-01-04T14:58:02.245Z,15.30
2023-01-04T15:00:49.040Z,20.20
2023-01-04T15:03:35.783Z,25.55
2023-01-04T15:06:22.461Z,16.25
2023-01-04T15:09:10.222Z,11.55
2023-01-04T15:11:59.501Z,18.45
2023-01-04T15:14:45.521Z,14.93
2023-01-04T15:17:31.525Z,15.57
2023-01-04T15:20:17.535Z,19.83
2023-01-04T15:23:03.859Z,17.98
2023-01-04T15:25:55.638Z,16.55
2023-01-04T15:28:41.981Z,24.23
2023-01-04T15:31:32.462Z,14.32
2023-01-04T15:34:23.068Z,11.15
2023-01-04T15:37:10.055Z,20.40
2023-01-04T15:40:01.846Z,14.07
2023-01-04T15:43:01.602Z,17.15
2023-01-04T15:45:48.240Z,18.77
2023-01-04T15:48:36.069Z,14.93
2023-01-04T15:51:22.190Z,20.83
2023-01-04T15:54:08.142Z,19.75
2023-01-04T15:56:55.133Z,24.30
2023-01-04T15:59:41.346Z,17.08
2023-01-04T16:02:27.456Z,21.35
2023-01-04T16:05:13.328Z,21.50
2023-01-04T16:07:59.126Z,16.58
2023-01-04T16:10:45.186Z,19.40
2023-01-04T16:13:31.192Z,20.80
2023-01-04T16:16:18.104Z,16.75
2023-01-04T16:19:04.259Z,13.93
2023-01-04T16:21:50.177Z,20.02
2023-01-04T16:27:43.914Z,15.50
2023-01-04T16:30:33.215Z,11.30
2023-01-04T16:33:19.176Z,12.40
2023-01-04T16:36:06.683Z,16.80
2023-01-04T16:38:52.639Z,17.52
2023-01-04T16:41:40.538Z,13.45
2023-01-04T16:44:26.773Z,15.90
2023-01-04T16:47:12.951Z,13.20
2023-01-04T16:49:58.919Z,21.45
2023-01-04T16:52:44.951Z,22.00
2023-01-04T16:55:30.914Z,13.25
2023-01-04T16:58:17.237Z,19.42
2023-01-04T17:01:23.289Z,13.32
2023-01-04T17:04:12.810Z,20.63
2023-01-04T17:06:58.846Z,21.15
2023-01-04T17:09:44.713Z,18.75
2023-01-04T17:12:48.112Z,23.23
2023-01-04T17:15:43.335Z,27.98
2023-01-04T17:18:30.908Z,22.38
2023-01-04T17:21:35.659Z,23.92
2023-01-04T17:24:22.201Z,13.18
2023-01-04T17:27:08.020Z,23.55
2023-01-04T17:29:53.974Z,13.63
2023-01-04T17:32:39.958Z,21.20
2023-01-04T17:35:25.666Z,17.05
2023-01-04T17:38:11.998Z,16.40
2023-01-04T17:41:07.747Z,15.98
2023-01-04T17:44:00.482Z,17.48
2023-01-04T17:46:48.337Z,12.40
2023-01-04T17:49:34.614Z,17.63
2023-01-04T17:52:28.842Z,17.92
2023-01-04T17:55:19.327Z,14.48
2023-01-04T17:58:09.763Z,19.02
2023-01-04T18:00:58.508Z,13.30
2023-01-04T18:03:51.001Z,15.65
2023-01-04T18:06:37.881Z,21.40
2023-01-04T18:09:25.565Z,18.05
2023-01-04T18:12:11.616Z,20.02
2023-01-04T18:14:57.963Z,19.67
2023-01-04T18:17:44.180Z,16.10
2023-01-04T18:20:31.115Z,20.10
2023-01-04T18:23:25.355Z,18.73
2023-01-04T18:26:13.560Z,10.63
2023-01-04T18:28:59.838Z,18.95
2023-01-04T18:31:46.039Z,21.00
2023-01-04T18:34:32.574Z,20.48
2023-01-04T18:37:19.305Z,13.45
2023-01-04T18:40:06.418Z,19.33
2023-01-04T18:42:52.648Z,18.15
2023-01-04T18:45:41.033Z,26.38
2023-01-04T18:48:27.531Z,19.45
2023-01-04T18:51:15.632Z,16.58
2023-01-04T18:54:01.820Z,18.42
2023-01-04T18:56:48.083Z,17.58
2023-01-04T18:59:35.917Z,30.85
2023-01-04T19:02:22.248Z,22.90
2023-01-04T19:05:09.112Z,23.27
2023-01-04T19:07:55.513Z,22.15
2023-01-04T19:10:41.991Z,14.70
2023-01-04T19:13:28.006Z,21.77
2023-01-04T19:16:14.424Z,31.30
2023-01-04T19:19:00.929Z,23.75
2023-01-04T19:21:47.101Z,25.38
2023-01-04T19:24:33.845Z,19.95
2023-01-04T19:27:20.530Z,18.65
2023-01-04T19:30:07.147Z,25.52
2023-01-04T19:32:53.082Z,24.65
2023-01-04T19:35:44.593Z,26.63
2023-01-04T19:38:30.983Z,24.85
2023-01-04T19:41:29.328Z,20.52
2023-01-04T19:44:19.489Z,20.25
2023-01-04T19:47:05.694Z,20.08
2023-01-04T19:49:51.789Z,28.73
2023-01-04T19:52:38.595Z,30.33
2023-01-04T19:55:29.593Z,23.17
2023-01-04T19:58:17.625Z,27.58
2023-01-04T20:01:06.811Z,20.27
2023-01-04T20:03:53.277Z,22.10
2023-01-04T20:06:39.631Z,25.90
2023-01-04T20:09:27.608Z,24.80
2023-01-04T20:12:13.416Z,24.85
2023-01-04T20:14:59.340Z,24.30
2023-01-04T20:17:45.266Z,24.63
2023-01-04T20:20:31.205Z,21.05
2023-01-04T20:23:17.361Z,18.10
2023-01-04T20:26:11.390Z,22.38
2023-01-04T20:28:57.984Z,20.35
2023-01-04T20:31:45.719Z,19.77
2023-01-04T20:34:32.446Z,23.30
2023-01-04T20:37:18.776Z,24.08
2023-01-04T20:40:05.215Z,15.85
2023-01-04T20:43:11.182Z,25.33
2023-01-04T20:48:43.711Z,27.85
2023-01-04T20:51:30.773Z,21.02
2023-01-04T20:54:16.741Z,23.25
2023-01-04T20:57:02.744Z,27.05
2023-01-04T20:59:48.643Z,18.70
2023-01-04T21:02:38.345Z,18.70
2023-01-04T21:05:24.361Z,20.75
2023-01-04T21:08:14.301Z,18.27
2023-01-04T21:11:00.790Z,21.58
2023-01-04T21:13:49.293Z,25.27
2023-01-04T21:16:35.292Z,21.92
2023-01-04T21:19:22.270Z,16.60
2023-01-04T21:22:08.326Z,16.10
2023-01-04T21:24:54.221Z,11.57
2023-01-04T21:27:40.180Z,24.33
2023-01-04T21:30:27.277Z,15.10
2023-01-04T21:33:14.623Z,14.75
2023-01-04T21:36:09.503Z,17.65
2023-01-04T21:38:58.118Z,16.55
2023-01-04T21:41:47.862Z,23.30
2023-01-04T21:44:34.760Z,13.48
2023-01-04T21:47:20.900Z,26.88
2023-01-04T21:50:09.670Z,17.95
2023-01-04T21:52:59.186Z,19.38
2023-01-04T21:55:45.176Z,22.02
2023-01-04T21:58:31.901Z,19.42
2023-01-04T22:01:21.475Z,17.05
2023-01-04T22:04:07.835Z,16.13
2023-01-04T22:06:54.224Z,24.45
2023-01-04T22:09:40.369Z,20.35
2023-01-04T22:12:26.393Z,20.60
2023-01-04T22:15:12.543Z,18.27
2023-01-04T22:17:58.743Z,16.05
2023-01-04T22:20:45.355Z,18.15
2023-01-04T22:23:32.070Z,20.80
2023-01-04T22:26:18.211Z,20.05
2023-01-04T22:29:04.523Z,19.15
2023-01-04T22:31:51.911Z,21.45
2023-01-04T22:34:37.887Z,22.83
2023-01-04T22:37:23.998Z,16.70
2023-01-04T22:40:10.780Z,21.65
2023-01-04T22:42:57.431Z,21.58
2023-01-04T22:45:43.406Z,21.08
2023-01-04T22:48:29.344Z,25.58
2023-01-04T22:51:17.718Z,11.38
2023-01-04T22:54:05.565Z,20.35
2023-01-04T22:56:55.658Z,21.75
2023-01-04T22:59:41.788Z,15.80
2023-01-04T23:02:27.914Z,16.95
2023-01-04T23:05:13.848Z,19.52
2023-01-04T23:07:59.772Z,16.23
2023-01-04T23:10:45.739Z,16.65
2023-01-04T23:13:31.646Z,20.73
2023-01-04T23:16:24.789Z,20.33
2023-01-04T23:19:16.960Z,24.38
2023-01-04T23:22:04.501Z,15.90
2023-01-04T23:24:50.623Z,14.30
2023-01-04T23:27:36.504Z,21.40
2023-01-04T23:30:22.929Z,23.20
2023-01-04T23:33:09.004Z,18.20
2023-01-04T23:35:55.382Z,17.27
2023-01-04T23:38:43.065Z,17.55
2023-01-04T23:41:45.135Z,20.63
2023-01-04T23:44:34.946Z,20.15
2023-01-04T23:47:20.940Z,22.00
2023-01-04T23:50:07.024Z,23.20
2023-01-04T23:52:53.480Z,20.00
2023-01-04T23:55:39.248Z,23.77
2023-01-04T23:58:27.499Z,24.20
